Time;durP1;ratioP1;P1;durP2;ratioP2;P2;SDS_P1;SDS_P2;PMS_P1;PMS_P2;Temp;Humidity;BMP_temperature;BMP_pressure;BME280_temperature;BME280_humidity;BME280_pressure;Samples;Min_cycle;Max_cycle;Signal;HPM_P1;HPM_P2
2023/12/04 00:01:31;;;;;;;9.60;4.13;;;;;;;9.89;46.29;101060.53;5075781;28;20493;-59
2023/12/04 00:03:57;;;;;;;9.82;3.97;;;;;;;9.89;46.09;101064.06;5057767;28;20039;-60
2023/12/04 00:06:24;;;;;;;7.50;3.35;;;;;;;9.88;46.94;101058.84;5058224;28;20126;-60
2023/12/04 00:08:50;;;;;;;7.10;3.42;;;;;;;9.89;46.17;101056.03;5075744;28;20040;-60
2023/12/04 00:11:15;;;;;;;8.98;4.03;;;;;;;9.86;46.42;101050.94;5075834;28;20032;-59
2023/12/04 00:13:41;;;;;;;9.90;3.55;;;;;;;9.91;46.54;101056.78;5057402;28;20487;-60
2023/12/04 00:16:06;;;;;;;7.88;3.50;;;;;;;9.95;46.28;101055.56;5074611;28;20471;-60
2023/12/04 00:18:32;;;;;;;8.57;4.03;;;;;;;9.97;45.87;101054.63;5057272;28;20028;-59
2023/12/04 00:20:57;;;;;;;11.30;3.53;;;;;;;9.95;46.27;101047.56;5057410;28;20044;-60
2023/12/04 00:23:23;;;;;;;10.35;3.95;;;;;;;9.97;45.46;101047.41;5057516;28;20025;-59
2023/12/04 00:25:48;;;;;;;8.48;3.72;;;;;;;10.00;45.96;101049.84;5075271;28;20055;-59
2023/12/04 00:28:14;;;;;;;6.13;3.13;;;;;;;10.04;45.44;101045.13;5094677;28;20032;-59
2023/12/04 00:30:40;;;;;;;6.70;2.95;;;;;;;10.03;45.71;101040.72;5080182;28;20037;-59
2023/12/04 00:33:05;;;;;;;6.78;3.47;;;;;;;10.05;45.84;101049.50;5056146;28;20060;-60
2023/12/04 00:35:30;;;;;;;9.70;4.03;;;;;;;10.05;45.74;101046.84;5040589;28;20510;-59
2023/12/04 00:37:56;;;;;;;10.73;3.40;;;;;;;10.04;45.88;101035.28;5074815;28;20033;-59
2023/12/04 00:40:21;;;;;;;8.13;3.22;;;;;;;10.08;45.64;101035.91;5057027;28;20033;-59
2023/12/04 00:42:46;;;;;;;12.00;3.50;;;;;;;10.07;45.98;101034.19;5075030;28;20071;-59
2023/12/04 00:45:12;;;;;;;7.88;3.83;;;;;;;10.09;45.60;101033.09;5056974;28;20488;-59
2023/12/04 00:47:37;;;;;;;10.05;3.88;;;;;;;10.11;45.30;101033.81;5056358;28;20045;-60
2023/12/04 00:50:03;;;;;;;10.55;3.55;;;;;;;10.10;45.23;101026.75;5074727;28;20084;-60
2023/12/04 00:52:28;;;;;;;7.20;3.42;;;;;;;10.10;44.98;101020.56;5056993;28;20365;-59
2023/12/04 00:54:54;;;;;;;7.00;3.17;;;;;;;10.07;45.31;101010.09;5047148;28;20098;-59
2023/12/04 00:57:19;;;;;;;9.00;3.17;;;;;;;10.10;46.01;101016.06;5056973;28;20032;-59
2023/12/04 00:59:44;;;;;;;10.77;4.55;;;;;;;10.13;45.48;101012.31;5074662;28;20028;-59
2023/12/04 01:02:10;;;;;;;5.90;3.20;;;;;;;10.11;45.44;101004.34;5074720;28;20377;-60
2023/12/04 01:04:35;;;;;;;12.52;4.18;;;;;;;10.14;45.33;101003.28;5040166;28;20032;-59
2023/12/04 01:07:01;;;;;;;8.18;2.63;;;;;;;10.14;45.22;101009.50;5055642;28;20036;-59
2023/12/04 01:09:26;;;;;;;6.53;3.42;;;;;;;10.13;45.44;100997.13;5056548;28;20039;-59
2023/12/04 01:11:53;;;;;;;7.57;3.42;;;;;;;10.13;45.54;100997.13;5047915;28;20071;-59
2023/12/04 01:14:19;;;;;;;11.65;3.97;;;;;;;10.14;44.70;100993.44;5038188;28;20500;-59
2023/12/04 01:16:45;;;;;;;7.47;3.50;;;;;;;10.15;45.11;100994.31;5057114;28;20048;-60
2023/12/04 01:19:10;;;;;;;4.72;3.13;;;;;;;10.14;45.28;100992.59;5072590;28;20036;-59
2023/12/04 01:21:35;;;;;;;7.15;3.20;;;;;;;10.14;45.51;100980.06;5072512;28;20032;-60
2023/12/04 01:24:01;;;;;;;7.00;3.15;;;;;;;10.10;45.00;100981.28;5072660;28;20103;-60
2023/12/04 01:26:26;;;;;;;9.27;3.75;;;;;;;10.13;44.66;100980.19;5071528;28;20028;-59
2023/12/04 01:28:52;;;;;;;6.15;3.22;;;;;;;10.11;45.40;100974.06;5062132;28;20033;-59
2023/12/04 01:31:17;;;;;;;13.55;4.30;;;;;;;10.10;45.38;100970.56;5074253;28;20556;-59
2023/12/04 01:33:42;;;;;;;5.82;3.03;;;;;;;10.10;45.04;100970.56;5056113;28;20028;-59
2023/12/04 01:36:08;;;;;;;7.03;3.28;;;;;;;10.10;45.32;100975.06;5056131;28;20032;-60
2023/12/04 01:38:33;;;;;;;5.85;3.80;;;;;;;10.07;45.49;100965.44;5074260;28;20051;-59
2023/12/04 01:40:59;;;;;;;9.90;3.72;;;;;;;10.07;45.15;100967.28;5056339;28;20035;-60
2023/12/04 01:43:24;;;;;;;7.75;3.08;;;;;;;10.06;45.28;100976.25;5039820;28;20028;-60
2023/12/04 01:45:51;;;;;;;5.35;3.25;;;;;;;10.03;45.68;100972.00;5039306;28;20089;-59
2023/12/04 01:48:17;;;;;;;6.95;3.40;;;;;;;10.01;45.55;100975.78;5073642;28;20045;-59
2023/12/04 01:50:43;;;;;;;6.85;2.95;;;;;;;9.95;45.51;100972.63;5055861;28;20044;-59
2023/12/04 01:53:08;;;;;;;7.38;3.85;;;;;;;9.92;45.71;100966.66;5055851;28;20036;-59
2023/12/04 01:55:35;;;;;;;5.70;2.70;;;;;;;9.91;45.49;100970.28;5073633;28;20044;-59
2023/12/04 01:58:02;;;;;;;7.03;3.05;;;;;;;9.88;45.36;100967.91;5056008;28;20033;-59
2023/12/04 02:00:29;;;;;;;13.05;4.07;;;;;;;9.88;45.71;100970.56;5055672;28;20043;-59
2023/12/04 02:02:55;;;;;;;6.30;3.47;;;;;;;9.84;45.44;100966.41;5054701;28;20036;-59
2023/12/04 02:05:21;;;;;;;8.95;3.60;;;;;;;9.83;45.52;100962.88;5038907;28;20047;-59
2023/12/04 02:07:47;;;;;;;9.98;3.03;;;;;;;9.76;46.13;100959.00;5073428;28;20077;-59
2023/12/04 02:10:12;;;;;;;8.07;3.55;;;;;;;9.74;45.66;100954.75;5072181;28;20040;-59
2023/12/04 02:12:38;;;;;;;8.18;3.78;;;;;;;9.69;45.72;100954.25;5073363;28;20123;-60
2023/12/04 02:15:04;;;;;;;13.27;4.15;;;;;;;9.63;45.67;100944.88;5071823;28;20039;-59
2023/12/04 02:17:29;;;;;;;6.63;3.53;;;;;;;9.60;45.33;100938.94;5055634;28;20036;-59
2023/12/04 02:19:55;;;;;;;6.90;3.45;;;;;;;9.55;45.79;100933.94;5072010;28;20039;-59
2023/12/04 02:22:20;;;;;;;9.40;4.30;;;;;;;9.52;45.85;100939.50;5071947;28;20033;-59
2023/12/04 02:24:46;;;;;;;12.48;4.72;;;;;;;9.49;45.80;100937.06;5073238;28;20036;-59
2023/12/04 02:27:20;;;;;;;6.80;3.53;;;;;;;9.45;46.05;100940.97;5055147;28;20033;-59
2023/12/04 02:30:06;;;;;;;11.52;4.38;;;;;;;9.44;45.56;100938.41;5070600;28;20075;-59
2023/12/04 02:32:35;;;;;;;11.30;3.95;;;;;;;9.39;45.82;100938.78;5055172;28;20033;-60
2023/12/04 02:35:02;;;;;;;13.93;5.07;;;;;;;9.38;45.78;100938.91;5055271;28;20050;-60
2023/12/04 02:37:28;;;;;;;14.10;4.70;;;;;;;9.36;45.75;100925.66;5055056;28;20047;-59
2023/12/04 02:39:55;;;;;;;15.38;3.97;;;;;;;9.37;45.95;100938.06;5070221;28;20396;-60
2023/12/04 02:42:21;;;;;;;12.98;4.72;;;;;;;9.29;45.79;100919.09;5071724;28;20043;-59
2023/12/04 02:44:47;;;;;;;16.60;3.85;;;;;;;9.32;45.68;100918.84;5073002;28;20076;-59
2023/12/04 02:47:13;;;;;;;9.23;4.20;;;;;;;9.31;45.74;100927.84;5073106;28;20441;-59
2023/12/04 02:49:39;;;;;;;11.82;5.05;;;;;;;9.31;45.57;100922.50;5074756;28;20145;-59
2023/12/04 02:52:04;;;;;;;10.05;3.92;;;;;;;9.30;45.63;100928.78;5075090;28;20036;-59
2023/12/04 02:54:29;;;;;;;10.25;3.55;;;;;;;9.28;45.80;100926.25;5093161;28;20056;-59
2023/12/04 02:56:55;;;;;;;25.20;4.88;;;;;;;9.27;46.03;100915.66;5058147;28;20097;-59
2023/12/04 02:59:21;;;;;;;9.50;3.85;;;;;;;9.26;46.07;100908.63;5092988;28;20040;-59
2023/12/04 03:01:46;;;;;;;7.45;3.55;;;;;;;9.23;45.51;100904.38;5092950;28;20044;-60
2023/12/04 03:04:11;;;;;;;6.45;4.18;;;;;;;9.20;45.94;100898.41;5092597;28;20105;-59
2023/12/04 03:06:37;;;;;;;10.95;3.80;;;;;;;9.20;45.77;100893.06;5074903;28;20036;-59
2023/12/04 03:09:04;;;;;;;7.88;3.47;;;;;;;9.16;46.16;100886.25;5074851;28;20056;-59
2023/12/04 03:11:30;;;;;;;9.98;4.30;;;;;;;9.15;46.01;100889.91;5092989;28;20507;-59
2023/12/04 03:13:55;;;;;;;10.52;3.70;;;;;;;9.14;45.69;100882.84;5092907;28;20034;-59
2023/12/04 03:16:21;;;;;;;9.05;3.88;;;;;;;9.12;46.14;100876.78;5057744;28;20032;-63
2023/12/04 03:18:46;;;;;;;8.80;4.15;;;;;;;9.12;45.64;100880.31;5057876;28;20032;-60
2023/12/04 03:21:12;;;;;;;10.45;3.95;;;;;;;9.09;45.91;100875.19;5074613;28;20036;-59
2023/12/04 03:23:37;;;;;;;10.10;4.65;;;;;;;9.09;46.51;100879.69;5074871;28;20036;-59
2023/12/04 03:26:03;;;;;;;11.32;4.63;;;;;;;9.08;45.84;100872.63;5074829;28;20059;-59
2023/12/04 03:28:28;;;;;;;11.50;4.82;;;;;;;9.06;46.03;100882.59;5058017;28;20453;-59
2023/12/04 03:30:54;;;;;;;15.57;4.97;;;;;;;9.06;46.44;100867.41;5058332;28;20028;-59
2023/12/04 03:33:20;;;;;;;11.98;5.28;;;;;;;9.01;46.15;100860.72;5074438;28;20069;-59
2023/12/04 03:35:46;;;;;;;17.05;4.95;;;;;;;9.03;46.49;100859.63;5092554;28;20032;-59
2023/12/04 03:38:11;;;;;;;13.70;4.50;;;;;;;9.00;46.38;100859.00;5074517;28;20492;-59
2023/12/04 03:40:37;;;;;;;9.00;4.18;;;;;;;8.98;45.66;100851.13;5074563;28;20487;-59
2023/12/04 03:43:02;;;;;;;10.13;4.70;;;;;;;9.02;46.38;100852.59;5074703;28;20515;-59
2023/12/04 03:45:28;;;;;;;12.02;4.63;;;;;;;9.02;46.02;100849.06;5094296;28;20035;-59
2023/12/04 03:47:53;;;;;;;7.82;3.78;;;;;;;9.03;45.76;100837.41;5094669;28;20061;-60
2023/12/04 03:50:19;;;;;;;7.68;3.95;;;;;;;9.02;45.97;100830.34;5094085;28;20032;-59
2023/12/04 03:52:44;;;;;;;7.57;3.35;;;;;;;8.99;46.33;100819.94;5096185;28;20457;-59
2023/12/04 03:55:09;;;;;;;12.30;4.35;;;;;;;8.97;46.07;100825.38;5061365;28;20032;-59
2023/12/04 03:57:35;;;;;;;7.43;3.55;;;;;;;8.98;46.16;100815.56;5096409;28;20036;-59
2023/12/04 04:00:01;;;;;;;8.30;3.58;;;;;;;8.97;46.10;100811.16;5077969;28;20050;-59
2023/12/04 04:02:28;;;;;;;13.02;4.32;;;;;;;8.99;46.41;100809.25;5077454;28;20046;-59
2023/12/04 04:04:53;;;;;;;8.15;4.13;;;;;;;8.99;46.74;100809.25;5096082;28;20548;-59
2023/12/04 04:07:19;;;;;;;10.95;3.95;;;;;;;8.95;46.50;100800.63;5095884;28;20032;-59
2023/12/04 04:09:44;;;;;;;11.90;4.90;;;;;;;8.98;46.45;100802.19;5061030;28;20032;-59
2023/12/04 04:12:10;;;;;;;10.25;4.53;;;;;;;8.98;46.49;100794.19;5077854;28;20059;-60
2023/12/04 04:14:35;;;;;;;9.30;4.25;;;;;;;8.98;46.55;100794.19;5095877;28;20052;-59
2023/12/04 04:17:01;;;;;;;10.00;5.05;;;;;;;8.95;46.85;100787.25;5086148;28;20408;-59
2023/12/04 04:19:27;;;;;;;11.05;4.65;;;;;;;8.97;46.04;100790.66;5057571;28;20041;-60
2023/12/04 04:21:53;;;;;;;13.45;4.43;;;;;;;8.98;46.86;100794.19;5075388;28;20039;-60
2023/12/04 04:24:18;;;;;;;10.27;5.32;;;;;;;8.96;45.93;100791.63;5057597;28;20033;-59
2023/12/04 04:26:43;;;;;;;9.75;5.32;;;;;;;8.94;46.42;100785.56;5075632;28;20040;-59
2023/12/04 04:29:09;;;;;;;11.68;5.25;;;;;;;8.97;45.99;100771.09;5075671;28;20032;-59
2023/12/04 04:31:34;;;;;;;10.07;4.57;;;;;;;8.93;46.92;100769.66;5075444;28;20504;-60
2023/12/04 04:34:01;;;;;;;12.00;4.65;;;;;;;8.96;45.99;100772.09;5057513;28;20488;-60
2023/12/04 04:36:26;;;;;;;10.57;4.40;;;;;;;8.97;46.27;100773.78;5057342;28;20086;-59
2023/12/04 04:38:51;;;;;;;13.15;5.20;;;;;;;8.99;45.87;100766.50;5040477;28;20028;-59
2023/12/04 04:41:17;;;;;;;10.63;4.10;;;;;;;8.97;46.42;100757.75;5075203;28;20548;-59
2023/12/04 04:43:43;;;;;;;12.27;4.35;;;;;;;8.96;46.25;100767.56;5057142;28;20064;-59
2023/12/04 04:46:10;;;;;;;10.30;4.43;;;;;;;8.97;45.94;100763.09;5057148;28;20032;-59
2023/12/04 04:48:35;;;;;;;11.27;4.53;;;;;;;9.01;46.26;100764.56;5053484;28;20087;-59
2023/12/04 04:51:00;;;;;;;16.15;4.05;;;;;;;9.01;46.44;100756.53;5040223;28;20032;-60
2023/12/04 04:53:26;;;;;;;12.48;4.65;;;;;;;9.03;46.68;100763.47;5040646;28;20064;-59
2023/12/04 04:55:51;;;;;;;11.73;4.10;;;;;;;9.04;45.59;100764.31;5056855;28;20082;-60
2023/12/04 04:58:17;;;;;;;10.60;4.38;;;;;;;9.03;46.69;100751.91;5074721;28;20040;-59
2023/12/04 05:00:43;;;;;;;12.05;4.28;;;;;;;9.06;45.93;100746.34;5040236;28;20028;-59
2023/12/04 05:03:09;;;;;;;12.68;5.82;;;;;;;9.03;46.48;100743.91;5073910;28;20049;-60
2023/12/04 05:05:34;;;;;;;9.43;4.90;;;;;;;9.06;46.63;100757.03;5050836;28;20046;-60
2023/12/04 05:07:59;;;;;;;15.23;4.28;;;;;;;9.03;46.35;100741.22;5036872;28;20476;-63
2023/12/04 05:10:25;;;;;;;10.85;4.40;;;;;;;9.05;46.07;100745.47;5074445;28;20032;-63
2023/12/04 05:12:50;;;;;;;8.93;4.00;;;;;;;9.03;45.97;100741.22;5040678;28;20025;-63
2023/12/04 05:15:17;;;;;;;11.88;5.45;;;;;;;9.05;46.65;100747.28;5056987;28;20115;-63
2023/12/04 05:17:42;;;;;;;9.38;4.13;;;;;;;9.06;46.67;100741.00;5056860;28;20021;-63
2023/12/04 05:20:08;;;;;;;7.25;4.65;;;;;;;9.07;46.34;100750.72;5056726;28;20020;-63
2023/12/04 05:22:34;;;;;;;7.93;3.88;;;;;;;9.05;46.54;100741.97;5040043;28;20442;-63
2023/12/04 05:25:00;;;;;;;7.32;3.40;;;;;;;9.07;46.91;100738.19;5039583;28;20020;-63
2023/12/04 05:27:25;;;;;;;10.68;4.00;;;;;;;9.06;45.99;100730.31;5074159;28;20052;-63
2023/12/04 05:29:51;;;;;;;12.07;3.80;;;;;;;9.09;46.49;100735.41;5039425;28;20044;-63
2023/12/04 05:32:16;;;;;;;6.63;2.95;;;;;;;9.09;46.65;100735.41;5056406;28;20020;-63
2023/12/04 05:34:42;;;;;;;6.15;3.40;;;;;;;9.07;46.19;100727.50;5056133;28;20066;-63
2023/12/04 05:37:07;;;;;;;9.05;3.58;;;;;;;9.11;46.59;100733.47;5039476;28;20115;-63
2023/12/04 05:39:34;;;;;;;6.78;3.20;;;;;;;9.11;46.67;100733.47;5074050;28;20051;-63
2023/12/04 05:41:59;;;;;;;7.10;2.97;;;;;;;9.10;46.18;100721.91;5038915;28;20164;-63
2023/12/04 05:44:24;;;;;;;8.70;3.55;;;;;;;9.09;46.65;100714.03;5056292;28;20463;-63
2023/12/04 05:46:50;;;;;;;9.05;3.03;;;;;;;9.10;46.14;100715.75;5039343;28;20376;-63
2023/12/04 05:49:15;;;;;;;8.80;3.22;;;;;;;9.09;46.40;100709.56;5055868;28;20048;-63
2023/12/04 05:51:41;;;;;;;6.47;2.90;;;;;;;9.05;45.95;100708.06;5039152;28;20032;-63
2023/12/04 05:54:08;;;;;;;5.20;2.38;;;;;;;9.09;45.82;100706.03;5073926;28;20028;-63
2023/12/04 05:56:34;;;;;;;4.28;2.53;;;;;;;9.09;46.08;100692.66;5071710;28;20028;-63
2023/12/04 05:58:59;;;;;;;5.85;3.03;;;;;;;9.07;46.58;100684.75;5038023;28;20438;-63
2023/12/04 06:01:25;;;;;;;6.32;3.05;;;;;;;9.03;46.27;100682.47;5073375;28;20425;-63
2023/12/04 06:03:50;;;;;;;7.72;2.92;;;;;;;9.04;46.24;100681.50;5055985;28;20024;-63
2023/12/04 06:06:15;;;;;;;7.30;3.00;;;;;;;9.01;46.79;100669.25;5055461;28;20471;-63
2023/12/04 06:08:41;;;;;;;5.28;3.13;;;;;;;9.03;46.14;100671.78;5055098;28;20035;-63
2023/12/04 06:11:06;;;;;;;8.85;3.17;;;;;;;9.00;45.83;100667.53;5055361;28;20035;-63
2023/12/04 06:13:32;;;;;;;7.65;3.05;;;;;;;9.03;45.98;100655.75;5072599;28;20028;-63
2023/12/04 06:15:57;;;;;;;6.20;2.63;;;;;;;8.98;45.90;100649.94;5038798;28;20028;-63
2023/12/04 06:18:22;;;;;;;5.05;2.83;;;;;;;8.98;46.21;100657.94;5055305;28;20468;-60
2023/12/04 06:20:48;;;;;;;6.25;2.25;;;;;;;8.96;45.68;100651.88;5073149;28;20136;-59
2023/12/04 06:23:14;;;;;;;6.22;2.60;;;;;;;8.96;46.47;100643.88;5050972;28;20053;-60
2023/12/04 06:25:40;;;;;;;4.22;2.55;;;;;;;8.94;46.23;100640.44;5054990;28;20036;-60
2023/12/04 06:28:06;;;;;;;5.15;2.15;;;;;;;8.90;46.38;100633.69;5037637;28;20064;-60
2023/12/04 06:30:32;;;;;;;5.78;2.30;;;;;;;8.88;46.30;100640.97;5038266;28;20541;-60
2023/12/04 06:32:58;;;;;;;5.95;2.35;;;;;;;8.86;46.22;100633.06;5055151;28;20040;-59
2023/12/04 06:35:23;;;;;;;3.30;1.65;;;;;;;8.85;46.20;100630.53;5055413;28;20111;-59
2023/12/04 06:37:50;;;;;;;4.40;2.30;;;;;;;8.84;46.47;100629.69;5073054;28;20043;-59
2023/12/04 06:40:17;;;;;;;3.95;2.10;;;;;;;8.82;46.13;100625.44;5038354;28;20028;-59
2023/12/04 06:42:43;;;;;;;3.83;1.85;;;;;;;8.83;45.91;100637.78;5054993;28;20411;-60
2023/12/04 06:45:09;;;;;;;5.93;2.25;;;;;;;8.83;46.51;100635.13;5054977;28;20031;-59
2023/12/04 06:47:34;;;;;;;7.75;2.15;;;;;;;8.84;45.79;100629.69;5051128;28;20098;-59
2023/12/04 06:50:00;;;;;;;6.65;2.70;;;;;;;8.84;46.14;100623.47;5034839;28;20041;-60
2023/12/04 06:52:25;;;;;;;8.00;2.15;;;;;;;8.79;46.31;100627.34;5035085;28;20522;-60
2023/12/04 06:54:51;;;;;;;4.20;2.83;;;;;;;8.84;46.17;100620.81;5018392;28;20044;-59
2023/12/04 06:57:16;;;;;;;15.45;2.85;;;;;;;8.87;45.96;100628.59;5052660;28;20032;-60
2023/12/04 06:59:42;;;;;;;3.00;1.85;;;;;;;8.85;45.92;100620.69;5034958;28;20033;-60
2023/12/04 07:02:07;;;;;;;6.75;2.78;;;;;;;8.88;46.31;100630.28;5052802;28;20033;-59
2023/12/04 07:04:33;;;;;;;4.30;2.72;;;;;;;8.89;45.88;100642.66;5035123;28;20086;-59
2023/12/04 07:07:04;;;;;;;3.47;2.13;;;;;;;8.91;46.10;100651.38;5034878;28;20044;-60
2023/12/04 07:09:30;;;;;;;6.25;2.70;;;;;;;8.94;45.85;100654.66;5051530;28;20094;-60
2023/12/04 07:11:55;;;;;;;4.25;2.55;;;;;;;8.98;45.30;100648.13;5034749;28;20552;-59
2023/12/04 07:14:20;;;;;;;4.18;2.60;;;;;;;9.02;45.72;100640.69;5018159;28;20546;-60
2023/12/04 07:16:46;;;;;;;9.38;2.55;;;;;;;9.03;45.67;100645.06;5052080;28;20044;-60
2023/12/04 07:19:13;;;;;;;9.20;3.38;;;;;;;9.04;45.60;100644.97;5052503;28;20055;-62
2023/12/04 07:21:38;;;;;;;6.97;2.97;;;;;;;9.11;45.57;100645.28;5034964;28;20083;-60
2023/12/04 07:24:04;;;;;;;6.68;2.40;;;;;;;9.14;45.16;100637.88;5052452;28;20051;-59
2023/12/04 07:26:30;;;;;;;5.45;2.40;;;;;;;9.15;45.36;100622.69;5038046;28;20025;-60
2023/12/04 07:28:56;;;;;;;6.53;3.60;;;;;;;9.17;45.78;100623.41;5056810;28;20033;-60
2023/12/04 07:31:21;;;;;;;9.35;2.25;;;;;;;9.16;45.32;100614.53;5038877;28;20381;-60
2023/12/04 07:33:47;;;;;;;5.05;2.67;;;;;;;9.15;45.05;100612.00;5038395;28;20036;-60
2023/12/04 07:36:12;;;;;;;5.43;2.53;;;;;;;9.16;45.02;100619.91;5037923;28;20033;-60
2023/12/04 07:38:37;;;;;;;3.38;2.08;;;;;;;9.16;45.46;100619.03;5056282;28;20048;-60
2023/12/04 07:41:03;;;;;;;5.38;2.30;;;;;;;9.13;45.08;100613.94;5056064;28;20091;-60
2023/12/04 07:43:28;;;;;;;7.10;2.67;;;;;;;9.16;45.44;100619.03;5048948;28;20033;-60
2023/12/04 07:45:56;;;;;;;5.10;2.55;;;;;;;9.17;45.54;100616.25;5018448;28;20033;-60
2023/12/04 07:48:21;;;;;;;4.35;2.25;;;;;;;9.15;45.29;100609.34;5060715;28;20037;-60
2023/12/04 07:50:46;;;;;;;8.77;2.13;;;;;;;9.13;45.62;100598.75;5037964;28;20041;-60
2023/12/04 07:53:13;;;;;;;4.53;3.22;;;;;;;9.17;45.08;100604.72;5056299;28;20116;-60
2023/12/04 07:55:39;;;;;;;7.43;2.90;;;;;;;9.16;45.70;100595.84;5038687;28;20033;-59
2023/12/04 07:58:04;;;;;;;8.25;2.85;;;;;;;9.22;44.68;100595.34;5056243;28;20032;-60
2023/12/04 08:00:29;;;;;;;5.20;2.35;;;;;;;9.26;45.37;100593.28;5038248;28;20029;-60
2023/12/04 08:02:55;;;;;;;5.35;2.58;;;;;;;9.28;45.57;100584.16;5038039;28;20025;-59
2023/12/04 08:05:22;;;;;;;7.05;2.65;;;;;;;9.31;45.37;100583.91;5038127;28;20471;-59
2023/12/04 08:07:47;;;;;;;4.35;3.03;;;;;;;9.31;44.82;100575.03;5055193;28;20103;-59
2023/12/04 08:10:13;;;;;;;9.52;2.60;;;;;;;9.31;45.03;100572.34;5055749;28;20069;-60
2023/12/04 08:12:38;;;;;;;7.85;2.72;;;;;;;9.28;44.79;100570.78;5057705;28;20071;-60
2023/12/04 08:15:04;;;;;;;4.30;2.17;;;;;;;9.30;45.24;100578.66;5038048;28;20079;-60
2023/12/04 08:17:30;;;;;;;4.00;2.25;;;;;;;9.32;45.48;100574.88;5054495;28;20564;-59
2023/12/04 08:19:55;;;;;;;7.53;2.45;;;;;;;9.34;45.22;100574.78;5054499;28;20111;-60
2023/12/04 08:22:21;;;;;;;5.47;2.33;;;;;;;9.35;44.78;100571.16;5055504;28;20063;-60
2023/12/04 08:24:46;;;;;;;4.28;2.70;;;;;;;9.37;44.39;100574.53;5054264;28;20037;-59
2023/12/04 08:27:11;;;;;;;4.40;2.47;;;;;;;9.41;45.04;100559.09;5054025;28;20497;-59
2023/12/04 08:29:39;;;;;;;4.72;2.47;;;;;;;9.43;44.59;100563.31;5057339;28;20438;-60
2023/12/04 08:32:05;;;;;;;3.95;2.45;;;;;;;9.44;44.70;100551.63;5056487;28;20094;-59
2023/12/04 08:34:31;;;;;;;3.67;2.05;;;;;;;9.44;45.02;100559.66;5056482;28;20036;-60
2023/12/04 08:36:56;;;;;;;5.88;2.15;;;;;;;9.48;44.80;100550.41;5074579;28;20041;-60
2023/12/04 08:39:22;;;;;;;5.05;2.50;;;;;;;9.45;44.60;100549.81;5075335;28;20109;-60
2023/12/04 08:41:47;;;;;;;6.88;2.92;;;;;;;9.47;44.77;100546.03;5057276;28;20056;-60
2023/12/04 08:44:13;;;;;;;6.18;2.15;;;;;;;9.47;44.74;100547.84;5040923;28;20028;-60
2023/12/04 08:46:39;;;;;;;5.32;2.65;;;;;;;9.45;44.63;100545.31;5057207;28;20647;-60
2023/12/04 08:49:05;;;;;;;6.15;3.00;;;;;;;9.44;44.58;100534.75;5074844;28;20120;-60
2023/12/04 08:51:30;;;;;;;6.63;2.88;;;;;;;9.45;44.76;100537.31;5040389;28;20052;-60
2023/12/04 08:53:56;;;;;;;5.65;2.63;;;;;;;9.44;45.07;100532.94;5074898;28;20047;-59
2023/12/04 08:56:21;;;;;;;6.20;2.53;;;;;;;9.47;44.61;100527.31;5074992;28;20036;-60
2023/12/04 08:58:47;;;;;;;5.97;3.08;;;;;;;9.49;44.17;100536.06;5074747;28;20039;-60
2023/12/04 09:01:12;;;;;;;5.00;3.00;;;;;;;9.50;44.17;100532.41;5040372;28;20032;-60
2023/12/04 09:03:37;;;;;;;7.95;3.17;;;;;;;9.48;44.65;100522.84;5074822;28;20565;-60
2023/12/04 09:06:03;;;;;;;8.02;4.05;;;;;;;9.52;44.59;100519.75;5056745;28;20044;-60
2023/12/04 09:08:29;;;;;;;7.07;2.80;;;;;;;9.54;44.29;100514.28;5056442;28;20051;-60
2023/12/04 09:10:56;;;;;;;5.78;3.03;;;;;;;9.52;44.35;100509.06;5063908;28;20041;-60
2023/12/04 09:13:22;;;;;;;6.40;3.50;;;;;;;9.51;44.89;100502.03;5036601;28;20060;-59
2023/12/04 09:15:48;;;;;;;6.43;3.35;;;;;;;9.52;44.31;100509.06;5036873;28;20427;-59
2023/12/04 09:18:13;;;;;;;8.43;3.40;;;;;;;9.49;44.95;100503.97;5053275;28;20041;-59
2023/12/04 09:20:39;;;;;;;7.97;3.95;;;;;;;9.51;44.38;100501.19;5036283;28;20033;-60
2023/12/04 09:23:04;;;;;;;7.25;3.80;;;;;;;9.53;44.57;100500.06;5053127;28;20045;-60
2023/12/04 09:25:29;;;;;;;6.57;3.80;;;;;;;9.52;44.43;100493.03;5054408;28;20047;-59
2023/12/04 09:27:55;;;;;;;5.93;3.67;;;;;;;9.55;43.94;100491.94;5051476;28;20063;-60
2023/12/04 09:30:20;;;;;;;7.80;4.20;;;;;;;9.55;44.60;100492.75;5054275;28;20075;-60
2023/12/04 09:32:45;;;;;;;7.32;4.00;;;;;;;9.57;44.39;100490.81;5052947;28;20047;-61
2023/12/04 09:35:11;;;;;;;9.57;4.55;;;;;;;9.57;44.22;100482.81;5053942;28;20468;-60
2023/12/04 09:37:36;;;;;;;6.32;3.67;;;;;;;9.58;43.76;100486.31;5036164;28;20083;-60
2023/12/04 09:40:02;;;;;;;7.68;4.03;;;;;;;9.58;44.36;100487.16;5054057;28;20028;-60
2023/12/04 09:42:30;;;;;;;8.30;3.88;;;;;;;9.59;44.19;100488.88;5053854;28;20056;-60
2023/12/04 09:44:55;;;;;;;8.63;4.32;;;;;;;9.62;44.53;100493.94;5052880;28;20087;-60
2023/12/04 09:47:21;;;;;;;8.02;3.63;;;;;;;9.62;43.84;100488.59;5053971;28;20041;-60
2023/12/04 09:49:47;;;;;;;8.80;4.40;;;;;;;9.68;44.18;100493.44;5038099;28;20040;-60
2023/12/04 09:52:12;;;;;;;8.55;3.85;;;;;;;9.70;44.23;100495.97;5055752;28;20116;-60
2023/12/04 09:54:38;;;;;;;7.57;3.67;;;;;;;9.70;44.07;100486.13;5072439;28;20225;-60
2023/12/04 09:57:05;;;;;;;8.07;4.20;;;;;;;9.77;44.19;100489.94;5055808;28;20057;-60
2023/12/04 09:59:30;;;;;;;7.13;3.78;;;;;;;9.80;44.26;100476.31;5055501;28;20444;-60
2023/12/04 10:01:57;;;;;;;9.15;4.75;;;;;;;9.82;44.21;100474.38;5039299;28;20035;-60
2023/12/04 10:04:23;;;;;;;8.10;4.22;;;;;;;9.85;44.33;100473.25;5073677;28;20028;-60
2023/12/04 10:06:52;;;;;;;11.93;4.20;;;;;;;9.86;44.23;100475.78;5055632;28;20063;-60
2023/12/04 10:09:22;;;;;;;8.05;4.05;;;;;;;9.89;44.20;100467.47;5073679;28;20119;-60
2023/12/04 10:11:48;;;;;;;8.07;4.35;;;;;;;9.89;43.90;100462.13;5073457;28;20090;-59
2023/12/04 10:14:20;;;;;;;8.95;4.07;;;;;;;9.90;44.17;100460.31;5055387;28;20028;-60
2023/12/04 10:16:46;;;;;;;12.90;4.72;;;;;;;9.93;44.28;100460.06;5072075;28;20036;-60
2023/12/04 10:19:15;;;;;;;9.52;5.20;;;;;;;9.97;43.95;100456.09;5055351;28;20029;-59
2023/12/04 10:21:40;;;;;;;10.85;4.45;;;;;;;9.98;43.94;100448.94;5071790;28;20385;-59
2023/12/04 10:24:06;;;;;;;8.48;4.13;;;;;;;10.00;44.31;100439.78;5073034;28;20078;-60
2023/12/04 10:26:31;;;;;;;7.35;4.38;;;;;;;10.05;43.82;100447.44;5071257;28;20094;-59
2023/12/04 10:29:01;;;;;;;8.13;4.03;;;;;;;10.07;44.53;100432.06;5055382;28;20107;-60
2023/12/04 10:31:32;;;;;;;9.77;4.10;;;;;;;10.11;43.80;100436.16;5073031;28;20361;-60
2023/12/04 10:33:57;;;;;;;7.53;4.22;;;;;;;10.12;43.90;100433.38;5073074;28;20032;-60
2023/12/04 10:36:22;;;;;;;9.07;4.07;;;;;;;10.19;44.40;100425.69;5038824;28;20029;-59
2023/12/04 10:38:59;;;;;;;9.95;4.05;;;;;;;10.16;43.68;100417.91;5055413;28;20131;-59
2023/12/04 10:41:24;;;;;;;10.60;4.53;;;;;;;10.18;44.32;100410.59;5055317;28;20082;-60
2023/12/04 10:43:50;;;;;;;6.68;3.95;;;;;;;10.20;44.00;100412.16;5054677;28;20036;-60
2023/12/04 10:46:18;;;;;;;9.10;4.38;;;;;;;10.23;44.60;100416.38;5054978;28;20420;-60
2023/12/04 10:48:45;;;;;;;9.65;4.05;;;;;;;10.21;44.54;100404.97;5054622;28;20531;-61
2023/12/04 10:51:12;;;;;;;15.10;4.00;;;;;;;10.26;44.40;100413.44;5054791;28;20035;-60
2023/12/04 10:53:40;;;;;;;9.15;4.40;;;;;;;10.29;44.18;100413.16;5054867;28;20396;-59
2023/12/04 10:56:07;;;;;;;5.45;3.05;;;;;;;10.28;44.17;100395.38;5038647;28;20021;-60
2023/12/04 10:58:34;;;;;;;9.07;3.40;;;;;;;10.30;44.45;100398.78;5038247;28;20012;-62
2023/12/04 11:01:01;;;;;;;6.88;3.15;;;;;;;10.29;44.21;100391.75;5037704;28;20111;-62
2023/12/04 11:03:36;;;;;;;5.15;3.22;;;;;;;10.26;44.66;100395.53;5054978;28;20024;-62
2023/12/04 11:06:04;;;;;;;9.95;3.88;;;;;;;10.23;44.26;100392.28;5072764;28;20392;-64
2023/12/04 11:08:32;;;;;;;6.28;3.05;;;;;;;10.21;44.73;100383.56;5055314;28;20051;-65
2023/12/04 11:11:07;;;;;;;6.70;3.17;;;;;;;10.20;45.01;100371.16;5038101;28;20047;-64
2023/12/04 11:13:35;;;;;;;7.20;3.08;;;;;;;10.19;45.67;100366.81;5073006;28;20031;-64
2023/12/04 11:16:04;;;;;;;7.13;2.50;;;;;;;10.21;45.11;100357.66;5072715;28;20068;-65
2023/12/04 11:18:31;;;;;;;4.88;2.88;;;;;;;10.23;45.10;100350.31;5054726;28;20499;-64
2023/12/04 11:20:59;;;;;;;6.63;3.50;;;;;;;10.26;45.54;100349.19;5054896;28;20036;-64
2023/12/04 11:23:26;;;;;;;4.57;2.78;;;;;;;10.24;44.99;100337.78;5054726;28;20458;-65